sensor_id;sensor_type;location;lat;lon;timestamp;P1;durP1;ratioP1;P2;durP2;ratioP2
49578;SDS011;35483;50.828;3.228;2023-04-19T00:01:01;18.90;;;15.05;;
49578;SDS011;35483;50.828;3.228;2023-04-19T00:03:27;22.15;;;15.57;;
49578;SDS011;35483;50.828;3.228;2023-04-19T00:05:54;20.00;;;16.10;;
49578;SDS011;35483;50.828;3.228;2023-04-19T00:08:23;23.73;;;16.00;;
49578;SDS011;35483;50.828;3.228;2023-04-19T00:10:52;19.95;;;15.50;;
49578;SDS011;35483;50.828;3.228;2023-04-19T00:13:17;20.40;;;16.50;;
49578;SDS011;35483;50.828;3.228;2023-04-19T00:15:43;19.83;;;15.32;;
49578;SDS011;35483;50.828;3.228;2023-04-19T00:18:09;20.48;;;15.77;;
49578;SDS011;35483;50.828;3.228;2023-04-19T00:20:34;21.27;;;15.85;;
49578;SDS011;35483;50.828;3.228;2023-04-19T00:23:00;19.52;;;15.15;;
49578;SDS011;35483;50.828;3.228;2023-04-19T00:25:26;21.02;;;15.93;;
49578;SDS011;35483;50.828;3.228;2023-04-19T00:27:53;20.85;;;16.15;;
49578;SDS011;35483;50.828;3.228;2023-04-19T00:30:19;20.77;;;16.55;;
49578;SDS011;35483;50.828;3.228;2023-04-19T00:32:44;20.50;;;15.40;;
49578;SDS011;35483;50.828;3.228;2023-04-19T00:35:10;24.17;;;16.98;;
49578;SDS011;35483;50.828;3.228;2023-04-19T00:37:36;20.30;;;16.08;;
49578;SDS011;35483;50.828;3.228;2023-04-19T00:40:01;21.50;;;15.27;;
49578;SDS011;35483;50.828;3.228;2023-04-19T00:42:28;23.00;;;16.67;;
49578;SDS011;35483;50.828;3.228;2023-04-19T00:44:54;21.75;;;16.15;;
49578;SDS011;35483;50.828;3.228;2023-04-19T00:47:19;20.33;;;16.30;;
49578;SDS011;35483;50.828;3.228;2023-04-19T00:49:45;21.08;;;16.23;;
49578;SDS011;35483;50.828;3.228;2023-04-19T00:52:12;21.45;;;15.23;;
49578;SDS011;35483;50.828;3.228;2023-04-19T00:54:38;22.58;;;16.50;;
49578;SDS011;35483;50.828;3.228;2023-04-19T00:57:06;22.85;;;16.77;;
49578;SDS011;35483;50.828;3.228;2023-04-19T00:59:33;22.50;;;16.58;;
49578;SDS011;35483;50.828;3.228;2023-04-19T01:01:59;25.85;;;17.23;;
49578;SDS011;35483;50.828;3.228;2023-04-19T01:04:25;23.10;;;16.38;;
49578;SDS011;35483;50.828;3.228;2023-04-19T01:06:51;22.17;;;15.82;;
49578;SDS011;35483;50.828;3.228;2023-04-19T01:09:17;23.42;;;16.77;;
49578;SDS011;35483;50.828;3.228;2023-04-19T01:11:43;21.75;;;16.85;;
49578;SDS011;35483;50.828;3.228;2023-04-19T01:14:08;20.23;;;16.20;;
49578;SDS011;35483;50.828;3.228;2023-04-19T01:16:34;21.75;;;16.70;;
49578;SDS011;35483;50.828;3.228;2023-04-19T01:19:00;21.73;;;16.92;;
49578;SDS011;35483;50.828;3.228;2023-04-19T01:21:26;23.30;;;17.15;;
49578;SDS011;35483;50.828;3.228;2023-04-19T01:23:54;19.55;;;15.55;;
49578;SDS011;35483;50.828;3.228;2023-04-19T01:26:20;20.75;;;15.50;;
49578;SDS011;35483;50.828;3.228;2023-04-19T01:28:46;22.52;;;17.23;;
49578;SDS011;35483;50.828;3.228;2023-04-19T01:31:12;22.60;;;17.38;;
49578;SDS011;35483;50.828;3.228;2023-04-19T01:33:37;22.50;;;16.73;;
49578;SDS011;35483;50.828;3.228;2023-04-19T01:36:03;23.38;;;17.38;;
49578;SDS011;35483;50.828;3.228;2023-04-19T01:38:29;23.77;;;17.25;;
49578;SDS011;35483;50.828;3.228;2023-04-19T01:40:55;22.95;;;16.85;;
49578;SDS011;35483;50.828;3.228;2023-04-19T01:43:23;22.63;;;17.20;;
49578;SDS011;35483;50.828;3.228;2023-04-19T01:45:49;23.95;;;17.45;;
49578;SDS011;35483;50.828;3.228;2023-04-19T01:48:14;19.73;;;16.10;;
49578;SDS011;35483;50.828;3.228;2023-04-19T01:50:40;21.65;;;16.70;;
49578;SDS011;35483;50.828;3.228;2023-04-19T01:53:06;25.00;;;17.73;;
49578;SDS011;35483;50.828;3.228;2023-04-19T01:55:31;21.17;;;15.98;;
49578;SDS011;35483;50.828;3.228;2023-04-19T01:57:57;22.13;;;16.75;;
49578;SDS011;35483;50.828;3.228;2023-04-19T02:00:23;23.80;;;17.60;;
49578;SDS011;35483;50.828;3.228;2023-04-19T02:02:48;24.02;;;18.35;;
49578;SDS011;35483;50.828;3.228;2023-04-19T02:05:14;22.67;;;16.77;;
49578;SDS011;35483;50.828;3.228;2023-04-19T02:07:40;22.40;;;17.10;;
49578;SDS011;35483;50.828;3.228;2023-04-19T02:10:08;24.02;;;18.17;;
49578;SDS011;35483;50.828;3.228;2023-04-19T02:12:34;23.02;;;17.42;;
49578;SDS011;35483;50.828;3.228;2023-04-19T02:15:00;24.27;;;18.27;;
49578;SDS011;35483;50.828;3.228;2023-04-19T02:17:26;22.00;;;17.45;;
49578;SDS011;35483;50.828;3.228;2023-04-19T02:19:52;22.35;;;16.95;;
49578;SDS011;35483;50.828;3.228;2023-04-19T02:22:18;25.77;;;17.90;;
49578;SDS011;35483;50.828;3.228;2023-04-19T02:24:44;22.40;;;17.17;;
49578;SDS011;35483;50.828;3.228;2023-04-19T02:27:11;23.38;;;17.10;;
49578;SDS011;35483;50.828;3.228;2023-04-19T02:29:37;23.38;;;17.50;;
49578;SDS011;35483;50.828;3.228;2023-04-19T02:32:03;22.88;;;17.77;;
49578;SDS011;35483;50.828;3.228;2023-04-19T02:34:30;24.48;;;18.42;;
49578;SDS011;35483;50.828;3.228;2023-04-19T02:36:59;23.05;;;17.95;;
49578;SDS011;35483;50.828;3.228;2023-04-19T02:39:25;26.17;;;17.13;;
49578;SDS011;35483;50.828;3.228;2023-04-19T02:41:51;23.95;;;17.67;;
49578;SDS011;35483;50.828;3.228;2023-04-19T02:44:16;23.10;;;17.88;;
49578;SDS011;35483;50.828;3.228;2023-04-19T02:46:51;22.50;;;18.02;;
49578;SDS011;35483;50.828;3.228;2023-04-19T02:49:18;24.27;;;18.55;;
49578;SDS011;35483;50.828;3.228;2023-04-19T02:51:44;24.25;;;17.65;;
49578;SDS011;35483;50.828;3.228;2023-04-19T02:54:10;23.75;;;18.13;;
49578;SDS011;35483;50.828;3.228;2023-04-19T02:56:37;25.10;;;17.52;;
49578;SDS011;35483;50.828;3.228;2023-04-19T02:59:02;23.10;;;17.58;;
49578;SDS011;35483;50.828;3.228;2023-04-19T03:01:29;26.38;;;18.50;;
49578;SDS011;35483;50.828;3.228;2023-04-19T03:03:55;23.95;;;17.95;;
49578;SDS011;35483;50.828;3.228;2023-04-19T03:06:21;24.65;;;18.27;;
49578;SDS011;35483;50.828;3.228;2023-04-19T03:08:46;24.23;;;18.70;;
49578;SDS011;35483;50.828;3.228;2023-04-19T03:11:14;23.83;;;17.92;;
49578;SDS011;35483;50.828;3.228;2023-04-19T03:13:41;25.02;;;18.08;;
49578;SDS011;35483;50.828;3.228;2023-04-19T03:16:07;24.85;;;18.15;;
49578;SDS011;35483;50.828;3.228;2023-04-19T03:18:33;24.60;;;17.38;;
49578;SDS011;35483;50.828;3.228;2023-04-19T03:21:00;26.20;;;18.55;;
49578;SDS011;35483;50.828;3.228;2023-04-19T03:23:27;23.63;;;17.90;;
49578;SDS011;35483;50.828;3.228;2023-04-19T03:25:53;24.00;;;18.35;;
49578;SDS011;35483;50.828;3.228;2023-04-19T03:28:20;24.42;;;18.52;;
49578;SDS011;35483;50.828;3.228;2023-04-19T03:30:46;24.60;;;19.13;;
49578;SDS011;35483;50.828;3.228;2023-04-19T03:33:11;24.38;;;18.33;;
49578;SDS011;35483;50.828;3.228;2023-04-19T03:35:37;26.23;;;19.75;;
49578;SDS011;35483;50.828;3.228;2023-04-19T03:38:03;25.23;;;19.02;;
49578;SDS011;35483;50.828;3.228;2023-04-19T03:40:32;25.45;;;18.30;;
49578;SDS011;35483;50.828;3.228;2023-04-19T03:42:58;26.40;;;19.15;;
49578;SDS011;35483;50.828;3.228;2023-04-19T03:45:23;23.77;;;18.35;;
49578;SDS011;35483;50.828;3.228;2023-04-19T03:47:49;26.40;;;19.65;;
49578;SDS011;35483;50.828;3.228;2023-04-19T03:50:15;23.80;;;17.50;;
49578;SDS011;35483;50.828;3.228;2023-04-19T03:52:40;27.25;;;19.88;;
49578;SDS011;35483;50.828;3.228;2023-04-19T03:55:06;26.02;;;18.02;;
49578;SDS011;35483;50.828;3.228;2023-04-19T03:57:32;27.00;;;19.17;;
49578;SDS011;35483;50.828;3.228;2023-04-19T03:59:58;23.92;;;17.95;;
49578;SDS011;35483;50.828;3.228;2023-04-19T04:02:25;25.85;;;20.08;;
49578;SDS011;35483;50.828;3.228;2023-04-19T04:04:54;23.90;;;18.20;;
49578;SDS011;35483;50.828;3.228;2023-04-19T04:07:20;25.40;;;18.40;;
49578;SDS011;35483;50.828;3.228;2023-04-19T04:09:48;26.02;;;19.20;;
49578;SDS011;35483;50.828;3.228;2023-04-19T04:12:15;25.02;;;19.80;;
49578;SDS011;35483;50.828;3.228;2023-04-19T04:14:40;28.77;;;19.38;;
49578;SDS011;35483;50.828;3.228;2023-04-19T04:17:06;25.48;;;19.27;;
49578;SDS011;35483;50.828;3.228;2023-04-19T04:19:31;25.77;;;19.08;;
49578;SDS011;35483;50.828;3.228;2023-04-19T04:21:57;26.05;;;19.30;;
49578;SDS011;35483;50.828;3.228;2023-04-19T04:24:23;27.60;;;19.75;;
49578;SDS011;35483;50.828;3.228;2023-04-19T04:26:49;23.42;;;18.45;;
49578;SDS011;35483;50.828;3.228;2023-04-19T04:29:15;26.10;;;18.90;;
49578;SDS011;35483;50.828;3.228;2023-04-19T04:31:41;24.63;;;17.92;;
49578;SDS011;35483;50.828;3.228;2023-04-19T04:34:08;27.23;;;20.08;;
49578;SDS011;35483;50.828;3.228;2023-04-19T04:36:34;30.15;;;20.48;;
49578;SDS011;35483;50.828;3.228;2023-04-19T04:39:03;28.48;;;19.30;;
49578;SDS011;35483;50.828;3.228;2023-04-19T04:41:30;26.33;;;19.13;;
49578;SDS011;35483;50.828;3.228;2023-04-19T04:43:56;26.05;;;18.67;;
49578;SDS011;35483;50.828;3.228;2023-04-19T04:46:23;24.30;;;17.75;;
49578;SDS011;35483;50.828;3.228;2023-04-19T04:48:49;26.13;;;19.63;;
49578;SDS011;35483;50.828;3.228;2023-04-19T04:51:16;27.73;;;19.38;;
49578;SDS011;35483;50.828;3.228;2023-04-19T04:53:41;27.15;;;20.05;;
49578;SDS011;35483;50.828;3.228;2023-04-19T04:56:07;26.02;;;19.42;;
49578;SDS011;35483;50.828;3.228;2023-04-19T04:58:33;26.27;;;19.00;;
49578;SDS011;35483;50.828;3.228;2023-04-19T05:00:59;29.13;;;19.65;;
49578;SDS011;35483;50.828;3.228;2023-04-19T05:03:24;26.13;;;19.58;;
49578;SDS011;35483;50.828;3.228;2023-04-19T05:05:51;28.10;;;19.45;;
49578;SDS011;35483;50.828;3.228;2023-04-19T05:08:17;26.55;;;19.50;;
49578;SDS011;35483;50.828;3.228;2023-04-19T05:10:42;28.25;;;19.23;;
49578;SDS011;35483;50.828;3.228;2023-04-19T05:13:08;25.58;;;18.58;;
49578;SDS011;35483;50.828;3.228;2023-04-19T05:15:34;27.02;;;18.95;;
49578;SDS011;35483;50.828;3.228;2023-04-19T05:17:59;29.75;;;20.10;;
49578;SDS011;35483;50.828;3.228;2023-04-19T05:20:25;28.90;;;20.05;;
49578;SDS011;35483;50.828;3.228;2023-04-19T05:22:55;27.88;;;20.35;;
49578;SDS011;35483;50.828;3.228;2023-04-19T05:25:22;29.27;;;18.98;;
49578;SDS011;35483;50.828;3.228;2023-04-19T05:27:48;25.95;;;18.85;;
49578;SDS011;35483;50.828;3.228;2023-04-19T05:30:14;24.25;;;18.33;;
49578;SDS011;35483;50.828;3.228;2023-04-19T05:32:39;28.83;;;18.73;;
49578;SDS011;35483;50.828;3.228;2023-04-19T05:35:06;26.38;;;18.52;;
49578;SDS011;35483;50.828;3.228;2023-04-19T05:37:32;28.83;;;18.83;;
49578;SDS011;35483;50.828;3.228;2023-04-19T05:39:58;27.08;;;19.42;;
49578;SDS011;35483;50.828;3.228;2023-04-19T05:42:23;25.48;;;18.83;;
49578;SDS011;35483;50.828;3.228;2023-04-19T05:44:49;26.88;;;19.63;;
49578;SDS011;35483;50.828;3.228;2023-04-19T05:47:15;24.80;;;19.17;;
49578;SDS011;35483;50.828;3.228;2023-04-19T05:49:41;26.15;;;18.35;;
49578;SDS011;35483;50.828;3.228;2023-04-19T05:52:07;26.58;;;19.20;;
49578;SDS011;35483;50.828;3.228;2023-04-19T05:54:33;24.20;;;18.05;;
49578;SDS011;35483;50.828;3.228;2023-04-19T05:57:00;23.58;;;17.55;;
49578;SDS011;35483;50.828;3.228;2023-04-19T05:59:27;24.45;;;18.15;;
49578;SDS011;35483;50.828;3.228;2023-04-19T06:01:53;24.10;;;18.75;;
49578;SDS011;35483;50.828;3.228;2023-04-19T06:04:20;23.90;;;18.63;;
49578;SDS011;35483;50.828;3.228;2023-04-19T06:06:46;23.77;;;16.75;;
49578;SDS011;35483;50.828;3.228;2023-04-19T06:09:12;24.60;;;17.85;;
49578;SDS011;35483;50.828;3.228;2023-04-19T06:11:38;25.15;;;17.77;;
49578;SDS011;35483;50.828;3.228;2023-04-19T06:14:05;26.42;;;17.33;;
49578;SDS011;35483;50.828;3.228;2023-04-19T06:16:31;21.73;;;16.17;;
49578;SDS011;35483;50.828;3.228;2023-04-19T06:18:57;23.98;;;16.58;;
49578;SDS011;35483;50.828;3.228;2023-04-19T06:21:22;22.73;;;17.38;;
49578;SDS011;35483;50.828;3.228;2023-04-19T06:23:49;22.05;;;16.52;;
49578;SDS011;35483;50.828;3.228;2023-04-19T06:26:15;22.25;;;16.33;;
49578;SDS011;35483;50.828;3.228;2023-04-19T06:28:41;22.60;;;17.23;;
49578;SDS011;35483;50.828;3.228;2023-04-19T06:31:07;22.25;;;16.08;;
49578;SDS011;35483;50.828;3.228;2023-04-19T06:33:33;23.02;;;16.80;;
49578;SDS011;35483;50.828;3.228;2023-04-19T06:35:58;24.73;;;16.58;;
49578;SDS011;35483;50.828;3.228;2023-04-19T06:38:24;24.02;;;17.27;;
49578;SDS011;35483;50.828;3.228;2023-04-19T06:40:50;20.92;;;15.32;;
49578;SDS011;35483;50.828;3.228;2023-04-19T06:43:15;21.70;;;15.15;;
49578;SDS011;35483;50.828;3.228;2023-04-19T06:45:41;19.50;;;14.05;;
49578;SDS011;35483;50.828;3.228;2023-04-19T06:48:07;22.80;;;16.58;;
49578;SDS011;35483;50.828;3.228;2023-04-19T06:50:32;21.45;;;16.17;;
49578;SDS011;35483;50.828;3.228;2023-04-19T06:52:58;19.63;;;14.25;;
49578;SDS011;35483;50.828;3.228;2023-04-19T06:55:24;21.33;;;15.43;;
49578;SDS011;35483;50.828;3.228;2023-04-19T06:57:50;19.63;;;14.55;;
49578;SDS011;35483;50.828;3.228;2023-04-19T07:00:15;20.98;;;15.40;;
49578;SDS011;35483;50.828;3.228;2023-04-19T07:02:41;20.15;;;14.20;;
49578;SDS011;35483;50.828;3.228;2023-04-19T07:05:07;20.23;;;14.82;;
49578;SDS011;35483;50.828;3.228;2023-04-19T07:07:33;19.13;;;13.13;;
49578;SDS011;35483;50.828;3.228;2023-04-19T07:10:01;14.68;;;11.70;;
49578;SDS011;35483;50.828;3.228;2023-04-19T07:12:27;16.48;;;12.25;;
49578;SDS011;35483;50.828;3.228;2023-04-19T07:14:53;16.80;;;12.68;;
49578;SDS011;35483;50.828;3.228;2023-04-19T07:17:21;16.63;;;12.93;;
49578;SDS011;35483;50.828;3.228;2023-04-19T07:19:47;19.38;;;12.32;;
49578;SDS011;35483;50.828;3.228;2023-04-19T07:22:13;17.05;;;12.38;;
49578;SDS011;35483;50.828;3.228;2023-04-19T07:24:39;15.85;;;11.93;;
49578;SDS011;35483;50.828;3.228;2023-04-19T07:27:06;16.50;;;11.43;;
49578;SDS011;35483;50.828;3.228;2023-04-19T07:29:35;15.57;;;11.45;;
49578;SDS011;35483;50.828;3.228;2023-04-19T07:32:01;16.73;;;11.85;;
49578;SDS011;35483;50.828;3.228;2023-04-19T07:34:27;15.13;;;11.50;;
49578;SDS011;35483;50.828;3.228;2023-04-19T07:36:53;16.33;;;11.18;;
49578;SDS011;35483;50.828;3.228;2023-04-19T07:39:19;14.98;;;11.13;;
49578;SDS011;35483;50.828;3.228;2023-04-19T07:41:44;12.95;;;10.30;;
49578;SDS011;35483;50.828;3.228;2023-04-19T07:44:10;14.63;;;10.85;;
49578;SDS011;35483;50.828;3.228;2023-04-19T07:46:37;16.80;;;11.02;;
49578;SDS011;35483;50.828;3.228;2023-04-19T07:49:03;18.92;;;10.25;;
49578;SDS011;35483;50.828;3.228;2023-04-19T07:51:29;13.55;;;9.73;;
49578;SDS011;35483;50.828;3.228;2023-04-19T07:53:55;13.15;;;9.93;;
49578;SDS011;35483;50.828;3.228;2023-04-19T07:56:21;11.45;;;8.57;;
49578;SDS011;35483;50.828;3.228;2023-04-19T07:58:47;14.25;;;9.63;;
49578;SDS011;35483;50.828;3.228;2023-04-19T08:01:13;13.77;;;10.05;;
49578;SDS011;35483;50.828;3.228;2023-04-19T08:03:38;12.35;;;8.13;;
49578;SDS011;35483;50.828;3.228;2023-04-19T08:06:04;11.95;;;9.95;;
49578;SDS011;35483;50.828;3.228;2023-04-19T08:08:34;11.25;;;9.02;;
49578;SDS011;35483;50.828;3.228;2023-04-19T08:11:01;11.65;;;8.88;;
49578;SDS011;35483;50.828;3.228;2023-04-19T08:13:27;13.32;;;8.98;;
49578;SDS011;35483;50.828;3.228;2023-04-19T08:15:53;12.40;;;8.70;;
49578;SDS011;35483;50.828;3.228;2023-04-19T08:18:19;12.30;;;9.07;;
49578;SDS011;35483;50.828;3.228;2023-04-19T08:20:45;11.52;;;8.68;;
49578;SDS011;35483;50.828;3.228;2023-04-19T08:23:12;10.13;;;8.10;;
49578;SDS011;35483;50.828;3.228;2023-04-19T08:25:38;12.88;;;8.65;;
49578;SDS011;35483;50.828;3.228;2023-04-19T08:28:04;10.15;;;8.38;;
49578;SDS011;35483;50.828;3.228;2023-04-19T08:30:30;12.63;;;8.60;;
49578;SDS011;35483;50.828;3.228;2023-04-19T08:32:56;11.80;;;8.23;;
49578;SDS011;35483;50.828;3.228;2023-04-19T08:35:22;11.55;;;8.00;;
49578;SDS011;35483;50.828;3.228;2023-04-19T08:37:49;12.25;;;9.65;;
49578;SDS011;35483;50.828;3.228;2023-04-19T08:40:15;12.32;;;9.00;;
49578;SDS011;35483;50.828;3.228;2023-04-19T08:42:41;11.27;;;8.68;;
49578;SDS011;35483;50.828;3.228;2023-04-19T08:45:08;11.27;;;8.07;;
49578;SDS011;35483;50.828;3.228;2023-04-19T08:47:37;9.63;;;7.70;;
49578;SDS011;35483;50.828;3.228;2023-04-19T08:50:04;9.48;;;7.60;;
49578;SDS011;35483;50.828;3.228;2023-04-19T08:52:35;10.70;;;7.93;;
49578;SDS011;35483;50.828;3.228;2023-04-19T08:55:02;8.55;;;7.13;;
49578;SDS011;35483;50.828;3.228;2023-04-19T08:57:32;9.20;;;7.57;;
49578;SDS011;35483;50.828;3.228;2023-04-19T09:00:00;9.60;;;7.78;;
49578;SDS011;35483;50.828;3.228;2023-04-19T09:02:46;9.55;;;6.85;;
49578;SDS011;35483;50.828;3.228;2023-04-19T09:05:16;9.25;;;7.45;;
49578;SDS011;35483;50.828;3.228;2023-04-19T09:07:43;9.00;;;7.68;;
49578;SDS011;35483;50.828;3.228;2023-04-19T09:12:36;8.07;;;6.72;;
49578;SDS011;35483;50.828;3.228;2023-04-19T09:15:03;10.35;;;7.25;;
49578;SDS011;35483;50.828;3.228;2023-04-19T09:17:33;9.88;;;7.60;;
49578;SDS011;35483;50.828;3.228;2023-04-19T09:20:03;10.63;;;8.15;;
49578;SDS011;35483;50.828;3.228;2023-04-19T09:22:30;8.77;;;6.80;;
49578;SDS011;35483;50.828;3.228;2023-04-19T09:24:57;11.13;;;7.72;;
49578;SDS011;35483;50.828;3.228;2023-04-19T09:27:25;9.07;;;6.55;;
49578;SDS011;35483;50.828;3.228;2023-04-19T09:29:56;8.90;;;7.13;;
49578;SDS011;35483;50.828;3.228;2023-04-19T09:32:26;11.32;;;8.00;;
49578;SDS011;35483;50.828;3.228;2023-04-19T09:37:20;8.43;;;7.50;;
49578;SDS011;35483;50.828;3.228;2023-04-19T09:39:47;8.40;;;7.60;;
49578;SDS011;35483;50.828;3.228;2023-04-19T09:42:12;8.98;;;6.90;;
49578;SDS011;35483;50.828;3.228;2023-04-19T09:44:38;7.28;;;6.50;;
49578;SDS011;35483;50.828;3.228;2023-04-19T09:47:26;9.35;;;7.72;;
49578;SDS011;35483;50.828;3.228;2023-04-19T09:52:31;9.80;;;7.97;;
49578;SDS011;35483;50.828;3.228;2023-04-19T09:54:59;8.55;;;7.57;;
49578;SDS011;35483;50.828;3.228;2023-04-19T09:57:26;8.80;;;7.90;;
49578;SDS011;35483;50.828;3.228;2023-04-19T09:59:52;9.23;;;7.60;;
49578;SDS011;35483;50.828;3.228;2023-04-19T10:02:17;10.63;;;8.95;;
49578;SDS011;35483;50.828;3.228;2023-04-19T10:04:44;9.93;;;8.45;;
49578;SDS011;35483;50.828;3.228;2023-04-19T10:07:10;10.57;;;8.18;;
49578;SDS011;35483;50.828;3.228;2023-04-19T10:09:37;10.57;;;8.35;;
49578;SDS011;35483;50.828;3.228;2023-04-19T10:12:03;9.70;;;8.68;;
49578;SDS011;35483;50.828;3.228;2023-04-19T10:14:31;10.82;;;9.32;;
49578;SDS011;35483;50.828;3.228;2023-04-19T10:17:00;10.38;;;9.00;;
49578;SDS011;35483;50.828;3.228;2023-04-19T10:19:27;10.30;;;9.20;;
49578;SDS011;35483;50.828;3.228;2023-04-19T10:21:54;10.65;;;8.70;;
49578;SDS011;35483;50.828;3.228;2023-04-19T10:24:20;8.18;;;7.38;;
49578;SDS011;35483;50.828;3.228;2023-04-19T10:32:19;8.98;;;8.07;;
49578;SDS011;35483;50.828;3.228;2023-04-19T10:34:45;9.55;;;7.90;;
49578;SDS011;35483;50.828;3.228;2023-04-19T10:37:15;8.40;;;7.53;;
49578;SDS011;35483;50.828;3.228;2023-04-19T10:39:42;9.35;;;7.95;;
49578;SDS011;35483;50.828;3.228;2023-04-19T10:42:08;12.23;;;9.13;;
49578;SDS011;35483;50.828;3.228;2023-04-19T10:44:34;9.38;;;8.50;;
49578;SDS011;35483;50.828;3.228;2023-04-19T10:47:00;8.85;;;7.35;;
49578;SDS011;35483;50.828;3.228;2023-04-19T10:49:29;8.05;;;7.13;;
49578;SDS011;35483;50.828;3.228;2023-04-19T10:51:55;9.02;;;7.75;;
49578;SDS011;35483;50.828;3.228;2023-04-19T10:54:31;10.27;;;7.63;;
49578;SDS011;35483;50.828;3.228;2023-04-19T10:57:04;8.87;;;7.40;;
49578;SDS011;35483;50.828;3.228;2023-04-19T10:59:32;9.35;;;7.82;;
49578;SDS011;35483;50.828;3.228;2023-04-19T11:01:59;8.60;;;6.68;;
49578;SDS011;35483;50.828;3.228;2023-04-19T11:06:56;9.35;;;8.35;;
49578;SDS011;35483;50.828;3.228;2023-04-19T11:09:34;9.10;;;8.18;;
49578;SDS011;35483;50.828;3.228;2023-04-19T11:12:03;8.90;;;7.85;;
49578;SDS011;35483;50.828;3.228;2023-04-19T11:14:36;8.75;;;7.72;;
49578;SDS011;35483;50.828;3.228;2023-04-19T11:17:48;8.43;;;7.63;;
49578;SDS011;35483;50.828;3.228;2023-04-19T11:19:56;8.82;;;7.43;;
49578;SDS011;35483;50.828;3.228;2023-04-19T11:22:29;8.20;;;7.40;;
49578;SDS011;35483;50.828;3.228;2023-04-19T11:25:03;8.27;;;7.47;;
49578;SDS011;35483;50.828;3.228;2023-04-19T11:27:35;10.82;;;7.72;;
49578;SDS011;35483;50.828;3.228;2023-04-19T11:30:02;8.57;;;7.68;;
49578;SDS011;35483;50.828;3.228;2023-04-19T11:32:29;9.02;;;7.82;;
49578;SDS011;35483;50.828;3.228;2023-04-19T11:34:55;7.82;;;6.57;;
49578;SDS011;35483;50.828;3.228;2023-04-19T11:37:21;8.23;;;7.25;;
49578;SDS011;35483;50.828;3.228;2023-04-19T11:39:47;7.03;;;6.25;;
49578;SDS011;35483;50.828;3.228;2023-04-19T11:42:19;7.60;;;6.80;;
49578;SDS011;35483;50.828;3.228;2023-04-19T11:44:48;7.18;;;6.47;;
49578;SDS011;35483;50.828;3.228;2023-04-19T11:47:15;6.72;;;5.57;;
49578;SDS011;35483;50.828;3.228;2023-04-19T11:49:41;6.13;;;5.47;;
49578;SDS011;35483;50.828;3.228;2023-04-19T11:52:07;6.53;;;5.90;;
49578;SDS011;35483;50.828;3.228;2023-04-19T11:54:33;5.82;;;5.22;;
49578;SDS011;35483;50.828;3.228;2023-04-19T11:56:59;6.55;;;5.85;;
49578;SDS011;35483;50.828;3.228;2023-04-19T11:59:27;5.75;;;5.15;;
49578;SDS011;35483;50.828;3.228;2023-04-19T12:01:54;4.93;;;4.53;;
49578;SDS011;35483;50.828;3.228;2023-04-19T12:04:19;7.28;;;5.28;;
49578;SDS011;35483;50.828;3.228;2023-04-19T12:06:54;6.13;;;5.10;;
49578;SDS011;35483;50.828;3.228;2023-04-19T12:09:22;6.40;;;5.78;;
49578;SDS011;35483;50.828;3.228;2023-04-19T12:11:48;5.63;;;5.13;;
49578;SDS011;35483;50.828;3.228;2023-04-19T12:14:17;6.25;;;5.35;;
49578;SDS011;35483;50.828;3.228;2023-04-19T12:16:53;5.25;;;4.65;;
49578;SDS011;35483;50.828;3.228;2023-04-19T12:22:09;6.97;;;5.35;;
49578;SDS011;35483;50.828;3.228;2023-04-19T12:24:36;5.40;;;4.93;;
49578;SDS011;35483;50.828;3.228;2023-04-19T12:27:02;4.72;;;4.32;;
49578;SDS011;35483;50.828;3.228;2023-04-19T12:29:28;5.25;;;4.72;;
49578;SDS011;35483;50.828;3.228;2023-04-19T12:31:54;5.45;;;4.95;;
49578;SDS011;35483;50.828;3.228;2023-04-19T12:34:20;6.05;;;5.05;;
49578;SDS011;35483;50.828;3.228;2023-04-19T12:36:45;6.07;;;4.97;;
49578;SDS011;35483;50.828;3.228;2023-04-19T12:39:11;5.10;;;4.60;;
49578;SDS011;35483;50.828;3.228;2023-04-19T12:41:37;5.20;;;4.70;;
49578;SDS011;35483;50.828;3.228;2023-04-19T12:44:03;6.55;;;5.40;;
49578;SDS011;35483;50.828;3.228;2023-04-19T12:46:28;5.30;;;4.68;;
49578;SDS011;35483;50.828;3.228;2023-04-19T12:48:54;5.97;;;4.80;;
49578;SDS011;35483;50.828;3.228;2023-04-19T12:51:20;5.53;;;5.00;;
49578;SDS011;35483;50.828;3.228;2023-04-19T12:53:48;5.30;;;4.80;;
49578;SDS011;35483;50.828;3.228;2023-04-19T12:56:14;6.00;;;5.32;;
49578;SDS011;35483;50.828;3.228;2023-04-19T12:58:41;5.50;;;4.95;;
49578;SDS011;35483;50.828;3.228;2023-04-19T13:01:07;6.60;;;5.90;;
49578;SDS011;35483;50.828;3.228;2023-04-19T13:03:33;6.43;;;5.72;;
49578;SDS011;35483;50.828;3.228;2023-04-19T13:06:00;8.65;;;6.53;;
49578;SDS011;35483;50.828;3.228;2023-04-19T13:08:27;6.45;;;5.50;;
49578;SDS011;35483;50.828;3.228;2023-04-19T13:10:54;7.88;;;5.82;;
49578;SDS011;35483;50.828;3.228;2023-04-19T13:13:20;8.43;;;7.10;;
49578;SDS011;35483;50.828;3.228;2023-04-19T13:15:46;7.63;;;6.80;;
49578;SDS011;35483;50.828;3.228;2023-04-19T13:18:11;7.38;;;6.68;;
49578;SDS011;35483;50.828;3.228;2023-04-19T13:20:37;6.32;;;5.72;;
49578;SDS011;35483;50.828;3.228;2023-04-19T13:23:03;7.20;;;5.07;;
49578;SDS011;35483;50.828;3.228;2023-04-19T13:25:28;6.57;;;5.72;;
49578;SDS011;35483;50.828;3.228;2023-04-19T13:27:54;11.18;;;6.13;;
49578;SDS011;35483;50.828;3.228;2023-04-19T13:30:20;6.45;;;5.85;;
49578;SDS011;35483;50.828;3.228;2023-04-19T13:32:45;7.03;;;6.32;;
49578;SDS011;35483;50.828;3.228;2023-04-19T13:35:11;7.78;;;6.97;;
49578;SDS011;35483;50.828;3.228;2023-04-19T13:37:37;6.68;;;5.97;;
49578;SDS011;35483;50.828;3.228;2023-04-19T13:40:04;7.57;;;6.00;;
49578;SDS011;35483;50.828;3.228;2023-04-19T13:42:31;5.90;;;5.35;;
49578;SDS011;35483;50.828;3.228;2023-04-19T13:44:56;6.80;;;6.13;;
49578;SDS011;35483;50.828;3.228;2023-04-19T13:47:22;8.25;;;6.78;;
49578;SDS011;35483;50.828;3.228;2023-04-19T13:49:47;7.75;;;6.95;;
49578;SDS011;35483;50.828;3.228;2023-04-19T13:52:17;8.95;;;6.47;;
49578;SDS011;35483;50.828;3.228;2023-04-19T13:54:43;7.90;;;7.10;;
49578;SDS011;35483;50.828;3.228;2023-04-19T13:57:09;7.47;;;6.68;;
49578;SDS011;35483;50.828;3.228;2023-04-19T13:59:34;7.60;;;6.38;;
49578;SDS011;35483;50.828;3.228;2023-04-19T14:02:02;9.77;;;6.43;;
49578;SDS011;35483;50.828;3.228;2023-04-19T14:04:28;6.28;;;5.68;;
49578;SDS011;35483;50.828;3.228;2023-04-19T14:06:54;7.25;;;6.43;;
49578;SDS011;35483;50.828;3.228;2023-04-19T14:09:20;7.82;;;6.25;;
49578;SDS011;35483;50.828;3.228;2023-04-19T14:11:46;8.18;;;6.07;;
49578;SDS011;35483;50.828;3.228;2023-04-19T14:14:13;8.25;;;6.90;;
49578;SDS011;35483;50.828;3.228;2023-04-19T14:16:39;7.43;;;5.72;;
49578;SDS011;35483;50.828;3.228;2023-04-19T14:19:05;9.00;;;6.10;;
49578;SDS011;35483;50.828;3.228;2023-04-19T14:21:31;6.45;;;5.57;;
49578;SDS011;35483;50.828;3.228;2023-04-19T14:23:57;7.82;;;5.57;;
49578;SDS011;35483;50.828;3.228;2023-04-19T14:26:23;6.82;;;5.15;;
49578;SDS011;35483;50.828;3.228;2023-04-19T14:28:48;7.05;;;5.47;;
49578;SDS011;35483;50.828;3.228;2023-04-19T14:31:14;6.25;;;5.60;;
49578;SDS011;35483;50.828;3.228;2023-04-19T14:33:40;7.40;;;5.68;;
49578;SDS011;35483;50.828;3.228;2023-04-19T14:36:05;8.43;;;5.60;;
49578;SDS011;35483;50.828;3.228;2023-04-19T14:38:31;5.97;;;5.22;;
49578;SDS011;35483;50.828;3.228;2023-04-19T14:40:58;7.82;;;5.05;;
49578;SDS011;35483;50.828;3.228;2023-04-19T14:43:23;5.70;;;5.10;;
49578;SDS011;35483;50.828;3.228;2023-04-19T14:45:50;10.80;;;5.78;;